createdAt,value
2023-02-27T00:01:46.599Z,102223.01
2023-02-27T00:04:14.963Z,102226.43
2023-02-27T00:06:42.985Z,102226.83
2023-02-27T00:09:10.950Z,102226.02
2023-02-27T00:11:39.223Z,102226.50
2023-02-27T00:14:07.425Z,102224.93
2023-02-27T00:16:35.496Z,102225.41
2023-02-27T00:19:05.074Z,102231.11
2023-02-27T00:21:35.288Z,102230.45
2023-02-27T00:24:05.660Z,102235.36
2023-02-27T00:26:33.791Z,102239.46
2023-02-27T00:29:01.729Z,102240.07
2023-02-27T00:31:30.785Z,102246.36
2023-02-27T00:33:59.127Z,102249.16
2023-02-27T00:36:27.203Z,102256.09
2023-02-27T00:38:55.370Z,102260.90
2023-02-27T00:41:23.394Z,102263.51
2023-02-27T00:43:53.014Z,102268.02
2023-02-27T00:46:20.981Z,102265.15
2023-02-27T00:48:49.330Z,102268.27
2023-02-27T00:51:20.203Z,102274.47
2023-02-27T00:53:48.295Z,102272.09
2023-02-27T00:56:16.375Z,102268.13
2023-02-27T00:58:44.439Z,102272.95
2023-02-27T01:01:12.562Z,102280.70
2023-02-27T01:03:40.681Z,102279.19
2023-02-27T01:06:08.855Z,102275.86
2023-02-27T01:08:36.935Z,102278.70
2023-02-27T01:11:06.433Z,102279.85
2023-02-27T01:13:34.502Z,102275.33
2023-02-27T01:16:02.661Z,102274.09
2023-02-27T01:18:30.931Z,102277.30
2023-02-27T01:20:58.921Z,102276.11
2023-02-27T01:23:27.092Z,102271.95
2023-02-27T01:25:55.166Z,102281.46
2023-02-27T01:28:23.146Z,102281.11
2023-02-27T01:30:51.704Z,102284.52
2023-02-27T01:33:19.787Z,102285.92
2023-02-27T01:35:47.882Z,102285.55
2023-02-27T01:38:15.927Z,102291.37
2023-02-27T01:40:44.822Z,102287.23
2023-02-27T01:43:19.270Z,102295.44
2023-02-27T01:45:49.141Z,102292.60
2023-02-27T01:48:26.227Z,102293.18
2023-02-27T01:51:07.628Z,102298.14
2023-02-27T01:53:38.468Z,102300.15
2023-02-27T01:56:19.912Z,102305.20
2023-02-27T01:58:50.049Z,102309.32
2023-02-27T02:01:20.587Z,102306.59
2023-02-27T02:04:00.700Z,102304.27
2023-02-27T02:06:38.532Z,102313.23
2023-02-27T02:09:08.959Z,102314.55
2023-02-27T02:11:38.118Z,102317.92
2023-02-27T02:14:10.978Z,102317.55
2023-02-27T02:16:43.444Z,102321.42
2023-02-27T02:19:14.275Z,102322.20
2023-02-27T02:21:45.383Z,102325.56
2023-02-27T02:24:20.522Z,102330.02
2023-02-27T02:27:19.368Z,102330.54
2023-02-27T02:30:02.749Z,102329.70
2023-02-27T02:33:03.006Z,102330.29
2023-02-27T02:35:47.726Z,102331.52
2023-02-27T02:38:40.166Z,102330.48
2023-02-27T02:41:34.595Z,102329.90
2023-02-27T02:44:32.629Z,102333.97
2023-02-27T02:47:22.042Z,102335.02
2023-02-27T02:49:55.667Z,102342.04
2023-02-27T02:52:36.482Z,102346.34
2023-02-27T02:55:18.850Z,102350.04
2023-02-27T02:57:58.110Z,102359.05
2023-02-27T03:00:33.391Z,102360.80
2023-02-27T03:03:23.126Z,102364.42
2023-02-27T03:05:58.160Z,102369.70
2023-02-27T03:08:34.431Z,102372.67
2023-02-27T03:11:04.148Z,102375.14
2023-02-27T03:13:39.518Z,102378.29
2023-02-27T03:16:27.830Z,102382.82
2023-02-27T03:19:33.875Z,102388.44
2023-02-27T03:22:05.492Z,102392.85
2023-02-27T03:24:41.996Z,102393.59
2023-02-27T03:27:11.919Z,102392.79
2023-02-27T03:30:07.534Z,102395.80
2023-02-27T03:32:54.439Z,102397.79
2023-02-27T03:35:28.524Z,102401.21
2023-02-27T03:38:08.809Z,102399.88
2023-02-27T03:40:44.556Z,102405.21
2023-02-27T03:43:16.561Z,102407.64
2023-02-27T03:45:51.038Z,102405.77
2023-02-27T03:48:19.248Z,102404.43
2023-02-27T03:50:47.483Z,102402.48
2023-02-27T03:53:44.535Z,102406.25
2023-02-27T03:56:16.400Z,102410.43
2023-02-27T03:58:44.768Z,102411.92
2023-02-27T04:01:13.146Z,102416.35
2023-02-27T04:03:52.565Z,102420.83
2023-02-27T04:06:54.043Z,102423.73
2023-02-27T04:09:30.143Z,102429.80
2023-02-27T04:12:26.466Z,102425.52
2023-02-27T04:15:12.627Z,102427.34
2023-02-27T04:18:18.991Z,102430.63
2023-02-27T04:21:19.317Z,102426.83
2023-02-27T04:23:59.519Z,102426.86
2023-02-27T04:26:58.881Z,102429.19
2023-02-27T04:29:39.922Z,102430.02
2023-02-27T04:32:31.294Z,102436.97
2023-02-27T04:35:06.609Z,102434.00
2023-02-27T04:37:57.844Z,102439.74
2023-02-27T04:40:37.061Z,102442.92
2023-02-27T04:43:09.803Z,102438.80
2023-02-27T04:45:41.825Z,102440.77
2023-02-27T04:48:24.517Z,102442.26
2023-02-27T04:50:58.608Z,102449.72
2023-02-27T04:53:39.907Z,102453.12
2023-02-27T04:56:14.278Z,102456.60
2023-02-27T04:58:53.080Z,102457.41
2023-02-27T05:01:31.060Z,102458.72
2023-02-27T05:04:00.656Z,102460.89
2023-02-27T05:06:35.183Z,102462.55
2023-02-27T05:09:31.433Z,102462.45
2023-02-27T05:12:05.007Z,102470.35
2023-02-27T05:14:39.322Z,102473.02
2023-02-27T05:17:36.880Z,102475.32
2023-02-27T05:20:09.364Z,102477.48
2023-02-27T05:22:47.975Z,102478.23
2023-02-27T05:25:30.819Z,102486.39
2023-02-27T05:28:02.759Z,102487.73
2023-02-27T05:30:48.231Z,102491.27
2023-02-27T05:33:31.055Z,102492.10
2023-02-27T05:36:14.298Z,102496.23
2023-02-27T05:38:51.660Z,102503.88
2023-02-27T05:41:27.844Z,102505.00
2023-02-27T05:44:08.438Z,102512.91
2023-02-27T05:46:42.943Z,102515.90
2023-02-27T05:49:27.880Z,102516.55
2023-02-27T05:52:02.088Z,102520.55
2023-02-27T05:54:43.062Z,102527.52
2023-02-27T05:57:17.479Z,102534.43
2023-02-27T06:00:03.673Z,102539.27
2023-02-27T06:02:41.342Z,102540.63
2023-02-27T06:05:10.256Z,102545.59
2023-02-27T06:07:38.434Z,102544.60
2023-02-27T06:10:07.237Z,102551.23
2023-02-27T06:12:35.297Z,102549.63
2023-02-27T06:15:03.563Z,102554.01
2023-02-27T06:17:31.536Z,102558.98
2023-02-27T06:19:59.713Z,102556.56
2023-02-27T06:22:27.778Z,102561.56
2023-02-27T06:24:56.260Z,102565.45
2023-02-27T06:27:24.336Z,102568.25
2023-02-27T06:29:53.674Z,102570.50
2023-02-27T06:32:25.382Z,102578.98
2023-02-27T06:34:53.562Z,102577.87
2023-02-27T06:37:22.137Z,102580.79
2023-02-27T06:39:50.409Z,102583.80
2023-02-27T06:42:18.479Z,102587.15
2023-02-27T06:44:46.548Z,102589.10
2023-02-27T06:47:14.725Z,102591.11
2023-02-27T06:49:42.793Z,102593.25
2023-02-27T06:52:10.799Z,102598.70
2023-02-27T06:54:38.932Z,102598.23
2023-02-27T06:57:07.207Z,102600.89
2023-02-27T06:59:35.336Z,102603.70
2023-02-27T07:02:03.557Z,102602.70
2023-02-27T07:04:31.593Z,102605.08
2023-02-27T07:07:35.710Z,102606.10
2023-02-27T07:09:49.080Z,102614.26
2023-02-27T07:12:17.175Z,102617.88
2023-02-27T07:14:45.181Z,102617.30
2023-02-27T07:17:13.179Z,102619.69
2023-02-27T07:19:41.253Z,102619.52
2023-02-27T07:22:11.995Z,102624.62
2023-02-27T07:24:40.059Z,102627.03
2023-02-27T07:27:08.131Z,102632.07
2023-02-27T07:29:36.286Z,102631.61
2023-02-27T07:32:04.601Z,102635.65
2023-02-27T07:34:32.746Z,102637.92
2023-02-27T07:37:00.812Z,102639.85
2023-02-27T07:39:28.982Z,102638.97
2023-02-27T07:41:57.052Z,102643.55
2023-02-27T07:44:25.136Z,102638.48
2023-02-27T07:46:53.341Z,102638.98
2023-02-27T07:49:21.575Z,102639.85
2023-02-27T07:51:49.648Z,102643.77
2023-02-27T07:54:17.819Z,102645.29
2023-02-27T07:56:46.306Z,102649.92
2023-02-27T07:59:14.317Z,102650.55
2023-02-27T08:01:42.437Z,102652.80
2023-02-27T08:04:10.652Z,102654.55
2023-02-27T08:06:38.891Z,102654.20
2023-02-27T08:09:07.262Z,102655.59
2023-02-27T08:11:35.370Z,102656.24
2023-02-27T08:14:03.549Z,102655.73
2023-02-27T08:16:32.527Z,102662.16
2023-02-27T08:19:01.596Z,102661.30
2023-02-27T08:21:30.325Z,102665.46
2023-02-27T08:23:58.958Z,102664.46
2023-02-27T08:26:27.382Z,102672.30
2023-02-27T08:28:55.620Z,102674.40
2023-02-27T08:31:24.349Z,102676.08
2023-02-27T08:34:01.222Z,102684.37
2023-02-27T08:36:36.302Z,102682.29
2023-02-27T08:39:05.113Z,102683.77
2023-02-27T08:41:34.236Z,102684.60
2023-02-27T08:44:03.112Z,102691.38
2023-02-27T08:46:31.229Z,102692.21
2023-02-27T08:48:59.220Z,102697.34
2023-02-27T08:51:27.779Z,102698.48
2023-02-27T08:53:59.158Z,102696.00
2023-02-27T08:56:28.609Z,102700.50
2023-02-27T08:58:57.143Z,102703.43
2023-02-27T09:01:28.676Z,102708.53
2023-02-27T09:03:57.813Z,102708.17
2023-02-27T09:06:26.523Z,102716.45
2023-02-27T09:08:55.429Z,102721.88
2023-02-27T09:11:24.467Z,102724.55
2023-02-27T09:13:53.241Z,102722.92
2023-02-27T09:16:22.486Z,102718.70
2023-02-27T09:18:50.819Z,102727.95
2023-02-27T09:21:18.882Z,102728.89
2023-02-27T09:23:47.057Z,102729.25
2023-02-27T09:26:16.277Z,102728.98
2023-02-27T09:28:44.838Z,102732.02
2023-02-27T09:31:13.590Z,102734.84
2023-02-27T09:33:41.719Z,102733.64
2023-02-27T09:36:10.200Z,102737.90
2023-02-27T09:38:41.228Z,102738.78
2023-02-27T09:41:24.765Z,102735.50
2023-02-27T09:43:53.233Z,102736.39
2023-02-27T09:46:25.785Z,102735.84
2023-02-27T09:49:00.274Z,102736.52
2023-02-27T09:51:29.925Z,102739.18
2023-02-27T09:54:01.572Z,102738.39
2023-02-27T09:56:35.710Z,102740.97
2023-02-27T09:59:35.563Z,102744.05
2023-02-27T10:02:29.976Z,102745.27
2023-02-27T10:05:22.812Z,102744.75
2023-02-27T10:08:10.080Z,102750.00
2023-02-27T10:10:46.539Z,102747.48
2023-02-27T10:13:42.235Z,102746.44
2023-02-27T10:16:18.837Z,102753.80
2023-02-27T10:18:52.591Z,102757.29
2023-02-27T10:21:29.329Z,102758.20
2023-02-27T10:24:13.867Z,102761.46
2023-02-27T10:26:44.597Z,102765.25
2023-02-27T10:29:20.845Z,102766.73
2023-02-27T10:31:57.552Z,102769.48
2023-02-27T10:34:28.778Z,102768.77
2023-02-27T10:37:01.123Z,102772.64
2023-02-27T10:39:30.718Z,102770.95
2023-02-27T10:42:06.859Z,102774.53
2023-02-27T10:44:34.915Z,102778.88
2023-02-27T10:47:03.304Z,102777.60
2023-02-27T10:49:33.150Z,102781.67
2023-02-27T10:52:06.482Z,102780.30
2023-02-27T10:54:34.751Z,102780.46
2023-02-27T10:57:27.578Z,102780.77
2023-02-27T10:59:59.240Z,102784.04
2023-02-27T11:02:37.371Z,102785.72
2023-02-27T11:05:07.910Z,102782.03
2023-02-27T11:07:39.724Z,102779.17
2023-02-27T11:10:10.873Z,102777.27
2023-02-27T11:12:40.444Z,102778.96
2023-02-27T11:15:17.214Z,102779.02
2023-02-27T11:17:45.226Z,102773.80
2023-02-27T11:20:33.528Z,102775.92
2023-02-27T11:23:16.544Z,102778.44
2023-02-27T11:25:45.036Z,102774.79
2023-02-27T11:28:33.388Z,102780.37
2023-02-27T11:31:17.313Z,102784.63
2023-02-27T11:33:54.894Z,102781.77
2023-02-27T11:36:23.910Z,102780.36
2023-02-27T11:38:54.997Z,102779.00
2023-02-27T11:41:35.739Z,102775.20
2023-02-27T11:44:05.688Z,102774.27
2023-02-27T11:46:46.795Z,102775.71
2023-02-27T11:49:44.102Z,102776.73
2023-02-27T11:52:32.888Z,102774.12
2023-02-27T11:55:04.937Z,102779.23
2023-02-27T11:57:38.209Z,102773.85
2023-02-27T12:00:27.186Z,102776.08
2023-02-27T12:03:33.569Z,102780.75
2023-02-27T12:06:06.620Z,102786.50
2023-02-27T12:08:55.411Z,102785.92
2023-02-27T12:11:24.275Z,102786.98
2023-02-27T12:14:04.774Z,102787.30
2023-02-27T12:16:37.650Z,102786.67
2023-02-27T12:19:15.935Z,102786.85
2023-02-27T12:22:12.570Z,102788.48
2023-02-27T12:24:56.119Z,102792.10
2023-02-27T12:27:29.912Z,102801.45
2023-02-27T12:30:07.809Z,102795.66
2023-02-27T12:32:53.944Z,102797.69
2023-02-27T12:35:30.438Z,102805.73
2023-02-27T12:37:59.692Z,102803.46
2023-02-27T12:40:37.054Z,102807.54
2023-02-27T12:43:17.739Z,102806.73
2023-02-27T12:45:48.557Z,102803.52
2023-02-27T12:48:23.336Z,102802.19
2023-02-27T12:51:29.433Z,102806.13
2023-02-27T12:54:22.301Z,102810.98
2023-02-27T12:57:08.440Z,102815.41
2023-02-27T13:00:09.347Z,102811.41
2023-02-27T13:02:40.384Z,102816.83
2023-02-27T13:05:43.481Z,102821.94
2023-02-27T13:08:39.552Z,102822.45
2023-02-27T13:11:36.723Z,102827.34
2023-02-27T13:14:31.450Z,102836.09
2023-02-27T13:17:17.324Z,102833.20
2023-02-27T13:19:53.214Z,102834.03
2023-02-27T13:22:34.112Z,102840.13
2023-02-27T13:25:11.977Z,102839.25
2023-02-27T13:27:46.677Z,102842.09
2023-02-27T13:30:24.407Z,102842.20
2023-02-27T13:32:52.636Z,102844.27
2023-02-27T13:35:29.588Z,102844.90
2023-02-27T13:38:05.423Z,102853.25
2023-02-27T13:40:39.418Z,102854.83
2023-02-27T13:43:33.167Z,102855.52
2023-02-27T13:46:26.011Z,102855.58
2023-02-27T13:49:06.111Z,102859.77
2023-02-27T13:51:41.465Z,102851.80
2023-02-27T13:54:18.389Z,102853.98
2023-02-27T13:56:50.647Z,102856.69
2023-02-27T13:59:37.878Z,102852.44
2023-02-27T14:02:12.067Z,102856.11
2023-02-27T14:04:50.752Z,102857.39
2023-02-27T14:07:24.377Z,102858.48
2023-02-27T14:10:11.678Z,102867.73
2023-02-27T14:12:45.784Z,102864.97
2023-02-27T14:15:17.489Z,102867.19
2023-02-27T14:17:49.644Z,102864.55
2023-02-27T14:20:27.471Z,102865.03
2023-02-27T14:23:16.961Z,102864.66
2023-02-27T14:25:53.450Z,102868.91
2023-02-27T14:28:48.638Z,102871.71
2023-02-27T14:31:28.785Z,102869.40
2023-02-27T14:34:01.020Z,102867.16
2023-02-27T14:36:33.171Z,102869.12
2023-02-27T14:39:03.220Z,102873.05
2023-02-27T14:41:55.952Z,102874.01
2023-02-27T14:44:27.384Z,102880.77
2023-02-27T14:46:57.599Z,102885.10
2023-02-27T14:49:29.927Z,102888.66
2023-02-27T14:52:14.853Z,102888.08
2023-02-27T14:54:45.097Z,102891.63
2023-02-27T14:57:26.976Z,102891.77
2023-02-27T14:59:55.421Z,102893.34
2023-02-27T15:02:29.334Z,102892.20
2023-02-27T15:05:03.643Z,102886.73
2023-02-27T15:07:34.641Z,102889.16
2023-02-27T15:10:06.151Z,102894.50
2023-02-27T15:12:39.368Z,102888.73
2023-02-27T15:15:10.324Z,102887.27
2023-02-27T15:17:41.350Z,102887.29
2023-02-27T15:20:31.119Z,102892.23
2023-02-27T15:23:01.718Z,102891.73
2023-02-27T15:25:34.958Z,102895.10
2023-02-27T15:28:23.455Z,102898.30
2023-02-27T15:30:53.976Z,102906.44
2023-02-27T15:33:30.862Z,102900.65
2023-02-27T15:36:00.105Z,102898.29
2023-02-27T15:38:29.739Z,102902.09
2023-02-27T15:40:59.833Z,102905.77
2023-02-27T15:43:30.095Z,102914.09
2023-02-27T15:45:58.773Z,102914.10
2023-02-27T15:48:27.169Z,102916.44
2023-02-27T15:51:00.572Z,102920.17
2023-02-27T15:53:31.034Z,102921.20
2023-02-27T15:56:02.322Z,102923.48
2023-02-27T15:58:32.085Z,102925.17
2023-02-27T16:01:08.403Z,102928.45
2023-02-27T16:03:49.229Z,102928.90
2023-02-27T16:06:35.593Z,102935.09
2023-02-27T16:09:16.603Z,102944.58
2023-02-27T16:11:44.700Z,102944.42
2023-02-27T16:14:37.911Z,102945.41
2023-02-27T16:17:24.106Z,102953.60
2023-02-27T16:19:53.204Z,102952.98
2023-02-27T16:22:22.004Z,102959.35
2023-02-27T16:24:50.360Z,102966.50
2023-02-27T16:27:29.433Z,102966.34
2023-02-27T16:30:02.942Z,102965.89
2023-02-27T16:32:44.329Z,102966.64
2023-02-27T16:35:21.869Z,102960.19
2023-02-27T16:37:50.876Z,102961.25
2023-02-27T16:40:23.009Z,102960.60
2023-02-27T16:42:52.664Z,102958.73
2023-02-27T16:45:26.621Z,102956.02
2023-02-27T16:48:00.254Z,102957.31
2023-02-27T16:50:38.753Z,102961.08
2023-02-27T16:53:08.101Z,102958.38
2023-02-27T16:55:39.886Z,102968.20
2023-02-27T16:58:13.620Z,102969.45
2023-02-27T17:00:41.967Z,102976.45
2023-02-27T17:03:10.220Z,102979.33
2023-02-27T17:05:38.443Z,102976.55
2023-02-27T17:08:06.554Z,102976.44
2023-02-27T17:10:34.667Z,102980.41
2023-02-27T17:13:02.584Z,102979.92
2023-02-27T17:15:30.633Z,102981.58
2023-02-27T17:17:58.695Z,102980.57
2023-02-27T17:20:28.290Z,102978.08
2023-02-27T17:22:56.798Z,102977.91
2023-02-27T17:25:25.666Z,102980.43
2023-02-27T17:27:53.860Z,102985.49
2023-02-27T17:30:22.124Z,102987.44
2023-02-27T17:32:50.198Z,102988.79
2023-02-27T17:35:18.382Z,102990.19
2023-02-27T17:37:46.737Z,102995.79
2023-02-27T17:40:14.813Z,103000.20
2023-02-27T17:42:42.977Z,103004.09
2023-02-27T17:45:11.775Z,103005.93
2023-02-27T17:47:39.856Z,103003.65
2023-02-27T17:50:08.354Z,103011.38
2023-02-27T17:52:37.437Z,103012.00
2023-02-27T17:55:06.832Z,103007.42
2023-02-27T17:57:36.619Z,103011.67
2023-02-27T18:00:09.723Z,103012.58
2023-02-27T18:02:37.767Z,103011.83
2023-02-27T18:05:06.799Z,103014.43
2023-02-27T18:07:34.945Z,103024.01
2023-02-27T18:10:05.849Z,103024.51
2023-02-27T18:12:34.520Z,103025.40
2023-02-27T18:15:03.464Z,103030.33
2023-02-27T18:17:32.056Z,103038.09
2023-02-27T18:20:00.627Z,103041.11
2023-02-27T18:22:30.227Z,103046.30
2023-02-27T18:24:58.860Z,103049.30
2023-02-27T18:27:28.175Z,103047.40
2023-02-27T18:29:57.921Z,103049.61
2023-02-27T18:32:26.099Z,103054.91
2023-02-27T18:34:54.381Z,103056.59
2023-02-27T18:37:22.457Z,103057.66
2023-02-27T18:39:50.574Z,103050.06
2023-02-27T18:42:18.588Z,103049.98
2023-02-27T18:44:47.900Z,103049.70
2023-02-27T18:47:16.050Z,103053.06
2023-02-27T18:49:44.350Z,103050.95
2023-02-27T18:52:12.400Z,103051.89
2023-02-27T18:54:42.512Z,103052.80
2023-02-27T18:57:11.095Z,103056.98
2023-02-27T18:59:41.362Z,103057.52
2023-02-27T19:02:21.585Z,103062.23
2023-02-27T19:04:49.846Z,103065.66
2023-02-27T19:07:19.746Z,103068.07
2023-02-27T19:09:47.754Z,103073.23
2023-02-27T19:12:15.815Z,103076.05
2023-02-27T19:14:44.101Z,103082.17
2023-02-27T19:17:12.149Z,103085.30
2023-02-27T19:19:40.229Z,103085.60
2023-02-27T19:22:08.409Z,103087.41
2023-02-27T19:24:36.465Z,103092.91
2023-02-27T19:27:04.697Z,103092.52
2023-02-27T19:29:33.120Z,103089.84
2023-02-27T19:32:02.379Z,103088.02
2023-02-27T19:34:30.691Z,103090.52
2023-02-27T19:36:58.752Z,103094.05
2023-02-27T19:39:27.950Z,103100.66
2023-02-27T19:41:56.691Z,103102.38
2023-02-27T19:44:26.560Z,103106.30
2023-02-27T19:46:54.627Z,103105.48
2023-02-27T19:49:22.798Z,103103.52
2023-02-27T19:51:50.796Z,103100.89
2023-02-27T19:54:18.861Z,103100.75
2023-02-27T19:56:47.112Z,103104.14
2023-02-27T19:59:15.168Z,103107.33
2023-02-27T20:01:43.260Z,103108.43
2023-02-27T20:04:11.655Z,103111.73
2023-02-27T20:06:42.743Z,103110.36
2023-02-27T20:09:14.740Z,103114.75
2023-02-27T20:11:44.447Z,103111.83
2023-02-27T20:14:14.051Z,103114.99
2023-02-27T20:16:42.986Z,103116.86
2023-02-27T20:19:15.207Z,103119.80
2023-02-27T20:21:43.747Z,103120.48
2023-02-27T20:24:12.770Z,103122.00
2023-02-27T20:26:44.130Z,103121.44
2023-02-27T20:29:15.849Z,103120.77
2023-02-27T20:31:46.494Z,103122.52
2023-02-27T20:34:16.875Z,103127.68
2023-02-27T20:36:45.012Z,103128.23
2023-02-27T20:39:13.090Z,103129.83
2023-02-27T20:41:41.157Z,103136.63
2023-02-27T20:44:09.537Z,103132.95
2023-02-27T20:46:42.681Z,103139.17
2023-02-27T20:49:12.645Z,103140.75
2023-02-27T20:51:40.766Z,103143.10
2023-02-27T20:54:13.643Z,103146.23
2023-02-27T20:56:43.159Z,103147.77
2023-02-27T20:59:16.475Z,103151.37
2023-02-27T21:01:51.899Z,103152.46
2023-02-27T21:04:47.438Z,103150.08
2023-02-27T21:07:21.542Z,103150.96
2023-02-27T21:09:50.977Z,103147.46
2023-02-27T21:12:19.037Z,103149.36
2023-02-27T21:14:48.845Z,103147.58
2023-02-27T21:17:17.118Z,103151.72
2023-02-27T21:19:45.187Z,103152.39
2023-02-27T21:22:14.421Z,103152.13
2023-02-27T21:24:42.413Z,103156.52
2023-02-27T21:27:10.425Z,103155.10
2023-02-27T21:29:38.883Z,103153.73
2023-02-27T21:32:07.832Z,103155.58
2023-02-27T21:34:36.080Z,103158.77
2023-02-27T21:37:06.487Z,103156.28
2023-02-27T21:39:34.715Z,103151.13
2023-02-27T21:42:02.832Z,103147.14
2023-02-27T21:44:32.050Z,103152.36
2023-02-27T21:47:00.033Z,103160.11
2023-02-27T21:49:29.539Z,103157.96
2023-02-27T21:51:57.622Z,103161.25
2023-02-27T21:54:25.597Z,103162.82
2023-02-27T21:56:53.611Z,103165.59
2023-02-27T21:59:21.837Z,103164.02
2023-02-27T22:01:51.216Z,103166.52
2023-02-27T22:04:20.479Z,103162.93
2023-02-27T22:06:50.495Z,103163.53
2023-02-27T22:09:19.496Z,103162.92
2023-02-27T22:11:48.971Z,103165.44
2023-02-27T22:14:17.473Z,103166.10
2023-02-27T22:16:45.470Z,103159.70
2023-02-27T22:19:19.965Z,103161.77
2023-02-27T22:21:48.489Z,103162.98
2023-02-27T22:24:16.620Z,103164.47
2023-02-27T22:26:45.920Z,103164.21
2023-02-27T22:29:14.409Z,103165.27
2023-02-27T22:31:43.341Z,103170.02
2023-02-27T22:34:15.406Z,103162.13
2023-02-27T22:36:43.915Z,103158.55
2023-02-27T22:39:13.015Z,103160.77
2023-02-27T22:41:42.169Z,103158.91
2023-02-27T22:44:13.199Z,103160.48
2023-02-27T22:46:47.225Z,103161.17
2023-02-27T22:49:21.607Z,103164.29
2023-02-27T22:51:51.719Z,103161.44
2023-02-27T22:54:22.170Z,103156.25
2023-02-27T22:56:53.977Z,103159.90
2023-02-27T22:59:23.399Z,103163.92
2023-02-27T23:01:52.114Z,103172.89
2023-02-27T23:04:22.452Z,103173.46
2023-02-27T23:06:52.697Z,103167.77
2023-02-27T23:09:24.239Z,103162.63
2023-02-27T23:11:52.822Z,103159.89
2023-02-27T23:14:21.512Z,103158.61
2023-02-27T23:16:49.694Z,103158.84
2023-02-27T23:19:20.345Z,103158.33
2023-02-27T23:21:48.641Z,103165.08
2023-02-27T23:24:18.766Z,103161.02
2023-02-27T23:26:51.723Z,103161.63
2023-02-27T23:29:20.475Z,103165.01
2023-02-27T23:31:48.914Z,103167.31
2023-02-27T23:34:17.078Z,103165.11
2023-02-27T23:36:45.236Z,103161.85
2023-02-27T23:39:13.409Z,103159.72
2023-02-27T23:41:41.684Z,103157.89
2023-02-27T23:44:09.761Z,103155.30
2023-02-27T23:46:38.212Z,103157.05
2023-02-27T23:49:06.581Z,103156.84
2023-02-27T23:51:35.113Z,103154.23
2023-02-27T23:54:03.659Z,103150.37
2023-02-27T23:56:31.687Z,103152.36
2023-02-27T23:59:03.178Z,103159.66
